createdAt,value
2019-02-03T00:00:57.404Z,94307.44
2019-02-03T00:15:51.299Z,94311.58
2019-02-03T00:30:51.703Z,94306.59
2019-02-03T00:45:50.587Z,94334.70
2019-02-03T01:00:50.587Z,94322.47
2019-02-03T01:15:50.400Z,94315.17
2019-02-03T01:30:50.829Z,94280.27
2019-02-03T01:45:52.640Z,94273.55
2019-02-03T02:00:50.653Z,94274.36
2019-02-03T02:15:52.542Z,94268.40
2019-02-03T02:30:50.936Z,94277.27
2019-02-03T02:45:51.896Z,94290.56
2019-02-03T03:00:52.903Z,94281.73
2019-02-03T03:15:51.081Z,94301.52
2019-02-03T03:30:51.550Z,94298.92
2019-02-03T03:45:51.209Z,94305.17
2019-02-03T04:00:51.528Z,94306.98
2019-02-03T04:15:51.063Z,94304.91
2019-02-03T04:30:52.913Z,94300.23
2019-02-03T04:45:51.418Z,94302.58
2019-02-03T05:00:51.262Z,94311.67
2019-02-03T05:15:51.143Z,94320.52
2019-02-03T05:30:50.645Z,94319.74
2019-02-03T05:45:50.999Z,94324.20
2019-02-03T06:00:50.448Z,94336.19
2019-02-03T06:15:51.390Z,94335.64
2019-02-03T06:45:56.820Z,94378.80
2019-02-03T07:00:50.687Z,94386.58
2019-02-03T07:15:51.324Z,94410.98
2019-02-03T07:30:51.849Z,94401.45
2019-02-03T07:45:51.224Z,94390.25
2019-02-03T08:00:51.424Z,94391.33
2019-02-03T08:15:53.080Z,94378.31
2019-02-03T08:30:51.547Z,94374.06
2019-02-03T08:45:51.547Z,94373.66
2019-02-03T09:15:53.311Z,94409.37
2019-02-03T10:00:51.699Z,94338.92
2019-02-03T10:15:54.180Z,94311.68
2019-02-03T10:30:51.264Z,94300.30
2019-02-03T10:45:51.031Z,94289.30
2019-02-03T11:15:53.759Z,94244.74
2019-02-03T11:30:51.854Z,94228.00
2019-02-03T11:45:53.158Z,94210.03
2019-02-03T12:00:50.880Z,94191.52
2019-02-03T12:15:51.323Z,94179.28
2019-02-03T12:30:51.189Z,94189.30
2019-02-03T12:45:51.030Z,94173.41
2019-02-03T13:00:51.011Z,94179.64
2019-02-03T13:15:52.463Z,94188.62
2019-02-03T13:30:51.272Z,94180.31
2019-02-03T13:45:51.259Z,94179.93
2019-02-03T14:00:51.215Z,94186.80
2019-02-03T14:15:51.231Z,94189.63
2019-02-03T14:30:51.474Z,94200.87
2019-02-03T14:45:50.581Z,94199.81
2019-02-03T15:00:52.400Z,94194.34
2019-02-03T15:15:50.397Z,94203.26
2019-02-03T15:30:50.904Z,94213.59
2019-02-03T15:45:52.860Z,94225.23
2019-02-03T16:00:52.671Z,94244.03
2019-02-03T16:15:51.804Z,94252.48
2019-02-03T16:30:51.165Z,94253.98
2019-02-03T16:45:50.975Z,94247.95
2019-02-03T17:00:50.963Z,94268.23
2019-02-03T17:30:53.459Z,94318.34
2019-02-03T17:45:51.312Z,94331.55
2019-02-03T18:00:57.306Z,94343.00
2019-02-03T18:15:54.126Z,94358.12
2019-02-03T18:30:51.459Z,94387.33
2019-02-03T18:45:50.632Z,94387.40
2019-02-03T19:00:51.541Z,94409.98
2019-02-03T19:15:52.833Z,94425.31
2019-02-03T19:30:50.964Z,94445.27
2019-02-03T19:45:50.873Z,94474.84
2019-02-03T20:00:52.796Z,94494.02
2019-02-03T20:15:53.803Z,94502.95
2019-02-03T20:30:51.186Z,94502.72
2019-02-03T20:45:53.180Z,94517.88
2019-02-03T21:00:51.047Z,94518.16
2019-02-03T21:15:51.452Z,94539.03
2019-02-03T21:30:51.242Z,94558.87
2019-02-03T21:45:51.254Z,94574.80
2019-02-03T22:00:50.172Z,94594.62
2019-02-03T22:15:55.815Z,94586.78
2019-02-03T22:30:51.672Z,94599.05
2019-02-03T22:45:51.437Z,94608.69
2019-02-03T23:15:50.775Z,94615.97
2019-02-03T23:30:52.268Z,94634.49
2019-02-03T23:45:51.644Z,94644.92
